world map with ZAG marked

ZAG - Airport

This information may not be accurate or current and is not valid for navigation or flight planning. No warranty of fitness for any purpose is made or implied.

flag of Croatia

Donate via PayPal

Additional information is available on the NEW Great Circle Mapper

Location
City:  Zagreb, Croatia
Name:Zagreb International (Pleso Airport)
ICAO / IATA:LDZA / ZAG

Details
Type:Airport (Aerodrome, Airfield)
Use:Public/Civil
Latitude:45°44'35"N (45.742931)
Longitude:16°04'08"E (16.068778)
Datum:WGS 1984
Elevation:353 ft (108 m)
Runways:1
Longest:10669 × 148 ft (3252 × 45 m)

Time
Timezone:UTC+1 (DST+4)
Local Time:

Weather
METAR:LDZA  300630Z 26004KT CAVOK 09/05 Q1026 NOSIG
TAF:LDZA  300525Z 3006/3106 VRB02KT CAVOK TX23/3013Z TN05/3104Z TEMPO 3009/3016 05007KT

Related Locations
Nearby:
Farthest:CHT: 11810 mi / 19007 km
Waitangi [Tuuta], CIT, NZ

Find:

   beyond  
but within

Other Information
Maps:
Links:
Sources:

  


 


Great Circle Mapper   Great Circle Mapper
Great Circle Mapper FAQ   Great Circle Mapper FAQ
  Karl's Home Page
KLSē   KLSē Home
   GC on Facebook
Airlines of the World   Airlines of the World
Donate via PayPal


Copyright © 2004-2017, Karl L. Swartz. All rights reserved.
All trademarks mentioned herein belong to their respective owners.

Please see credits for attribution and copyright information.

Karl Swartz <karl@kls2.com>
  Powered by FreeBSD
Valid HTML 4.01!
Labeled with ICRA
hCard Microformat
Geo Microformat